Time;durP1;ratioP1;P1;durP2;ratioP2;P2;SDS_P1;SDS_P2;PMS_P1;PMS_P2;Temp;Humidity;BMP_temperature;BMP_pressure;BME280_temperature;BME280_humidity;BME280_pressure;Samples;Min_cycle;Max_cycle;Signal;HPM_P1;HPM_P2
2021/07/10 00:01:51;;;;;;;;;;;17.70;81.40;;;;;;5093886;28;19904;-36
2021/07/10 00:04:17;;;;;;;;;;;17.50;81.70;;;;;;5093534;28;19904;-37
2021/07/10 00:06:42;;;;;;;;;;;17.50;82.10;;;;;;5093290;28;19904;-52
2021/07/10 00:09:08;;;;;;;;;;;17.50;82.30;;;;;;5076927;28;19919;-39
2021/07/10 00:11:33;;;;;;;;;;;17.30;82.90;;;;;;5095292;28;19903;-37
2021/07/10 00:13:59;;;;;;;;;;;17.40;82.80;;;;;;5094948;28;20042;-37
2021/07/10 00:16:24;;;;;;;;;;;17.30;83.00;;;;;;5096910;28;19954;-37
2021/07/10 00:18:50;;;;;;;;;;;17.30;82.90;;;;;;5097380;28;19904;-37
2021/07/10 00:21:15;;;;;;;;;;;17.30;83.70;;;;;;5097225;28;19904;-37
2021/07/10 00:23:41;;;;;;;;;;;17.10;84.00;;;;;;5097787;28;20412;-37
2021/07/10 00:26:06;;;;;;;;;;;17.20;84.20;;;;;;5096799;28;19904;-37
2021/07/10 00:28:32;;;;;;;;;;;17.10;84.20;;;;;;5097552;28;20315;-37
2021/07/10 00:30:57;;;;;;;;;;;17.20;84.60;;;;;;5096733;28;19987;-36
2021/07/10 00:33:23;;;;;;;;;;;17.10;84.40;;;;;;5097553;28;19904;-37
2021/07/10 00:35:48;;;;;;;;;;;17.10;84.60;;;;;;5078502;28;20334;-36
2021/07/10 00:38:14;;;;;;;;;;;17.00;84.90;;;;;;5096740;28;19986;-36
2021/07/10 00:40:39;;;;;;;;;;;16.90;85.00;;;;;;5096984;28;19954;-36
2021/07/10 00:43:05;;;;;;;;;;;17.00;85.20;;;;;;5096437;28;20271;-36
2021/07/10 00:45:30;;;;;;;;;;;17.00;84.90;;;;;;5096540;28;20356;-37
2021/07/10 00:47:56;;;;;;;;;;;16.80;84.90;;;;;;5096244;28;20456;-51
2021/07/10 00:50:22;;;;;;;;;;;16.70;85.80;;;;;;5096057;28;20002;-37
2021/07/10 00:52:48;;;;;;;;;;;16.60;86.10;;;;;;5096406;28;19908;-37
2021/07/10 00:55:14;;;;;;;;;;;16.60;86.30;;;;;;5096943;28;19904;-37
2021/07/10 00:57:40;;;;;;;;;;;16.60;86.00;;;;;;5096736;28;19903;-37
2021/07/10 01:00:07;;;;;;;;;;;16.60;86.30;;;;;;5096204;28;19911;-36
2021/07/10 01:02:34;;;;;;;;;;;16.60;86.30;;;;;;5077980;28;19994;-36
2021/07/10 01:04:59;;;;;;;;;;;16.50;86.60;;;;;;5095801;28;19991;-36
2021/07/10 01:07:25;;;;;;;;;;;16.60;86.10;;;;;;5077649;28;19904;-37
2021/07/10 01:09:50;;;;;;;;;;;16.60;86.10;;;;;;5095729;28;19908;-37
2021/07/10 01:12:16;;;;;;;;;;;16.60;86.20;;;;;;5095575;28;19942;-37
2021/07/10 01:14:42;;;;;;;;;;;16.60;86.10;;;;;;5095702;28;19969;-37
2021/07/10 01:17:08;;;;;;;;;;;16.60;86.10;;;;;;5095538;28;19915;-37
2021/07/10 01:19:34;;;;;;;;;;;16.50;86.40;;;;;;5095559;28;19904;-37
2021/07/10 01:21:59;;;;;;;;;;;16.60;86.30;;;;;;5077375;28;19912;-37
2021/07/10 01:24:25;;;;;;;;;;;16.50;86.20;;;;;;5095640;28;19904;-37
2021/07/10 01:26:51;;;;;;;;;;;16.30;86.50;;;;;;5094552;28;19904;-37
2021/07/10 01:29:17;;;;;;;;;;;16.30;86.80;;;;;;5095391;28;20026;-37
2021/07/10 01:31:43;;;;;;;;;;;16.30;86.70;;;;;;5095309;28;19911;-36
2021/07/10 01:34:08;;;;;;;;;;;16.40;86.60;;;;;;5095362;28;19912;-36
2021/07/10 01:36:34;;;;;;;;;;;16.50;85.70;;;;;;5095595;28;19904;-37
2021/07/10 01:39:00;;;;;;;;;;;16.40;86.00;;;;;;5095466;28;19955;-36
2021/07/10 01:41:25;;;;;;;;;;;16.30;86.60;;;;;;5076941;28;20326;-36
2021/07/10 01:43:51;;;;;;;;;;;16.30;86.90;;;;;;5095044;28;20401;-35
2021/07/10 01:46:18;;;;;;;;;;;16.30;86.70;;;;;;5076620;28;19908;-36
2021/07/10 01:48:44;;;;;;;;;;;16.30;87.00;;;;;;5094653;28;19915;-35
2021/07/10 01:51:09;;;;;;;;;;;16.30;86.90;;;;;;5094833;28;19904;-36
2021/07/10 01:53:35;;;;;;;;;;;16.10;87.20;;;;;;5094864;28;19911;-35
2021/07/10 01:56:00;;;;;;;;;;;16.10;87.20;;;;;;5094816;28;19910;-36
2021/07/10 01:58:26;;;;;;;;;;;16.00;87.50;;;;;;5094802;28;20386;-36
2021/07/10 02:00:52;;;;;;;;;;;16.00;87.70;;;;;;5094769;28;19904;-36
2021/07/10 02:03:17;;;;;;;;;;;16.00;87.70;;;;;;5076670;28;20032;-36
2021/07/10 02:05:43;;;;;;;;;;;15.90;87.80;;;;;;5076449;28;19950;-37
2021/07/10 02:08:09;;;;;;;;;;;15.90;88.00;;;;;;5094581;28;19912;-36
2021/07/10 02:10:35;;;;;;;;;;;15.90;87.80;;;;;;5094550;28;19908;-37
2021/07/10 02:13:04;;;;;;;;;;;15.80;88.00;;;;;;5094836;28;19933;-36
2021/07/10 02:15:30;;;;;;;;;;;15.90;88.20;;;;;;5094780;28;20007;-36
2021/07/10 02:17:56;;;;;;;;;;;15.90;88.50;;;;;;5094446;28;20379;-36
2021/07/10 02:20:22;;;;;;;;;;;15.90;88.60;;;;;;5094377;28;19938;-36
2021/07/10 02:22:48;;;;;;;;;;;15.90;88.50;;;;;;5094650;28;19955;-36
2021/07/10 02:25:15;;;;;;;;;;;15.80;88.40;;;;;;5076177;28;19904;-36
2021/07/10 02:27:41;;;;;;;;;;;15.80;88.50;;;;;;5094591;28;19904;-36
2021/07/10 02:30:08;;;;;;;;;;;15.80;88.60;;;;;;5094172;28;20064;-36
2021/07/10 02:32:33;;;;;;;;;;;15.80;88.70;;;;;;5094537;28;19914;-36
2021/07/10 02:34:59;;;;;;;;;;;15.70;88.70;;;;;;5094201;28;20014;-36
2021/07/10 02:37:25;;;;;;;;;;;15.70;88.80;;;;;;5094092;28;19904;-36
2021/07/10 02:39:50;;;;;;;;;;;15.70;88.90;;;;;;5075945;28;19987;-36
2021/07/10 02:42:16;;;;;;;;;;;15.80;88.90;;;;;;5094098;28;20360;-37
2021/07/10 02:44:41;;;;;;;;;;;15.80;88.90;;;;;;5094084;28;19943;-37
2021/07/10 02:47:07;;;;;;;;;;;15.80;88.70;;;;;;5094132;28;19904;-36
2021/07/10 02:49:32;;;;;;;;;;;15.70;88.80;;;;;;5094066;28;19947;-36
2021/07/10 02:51:58;;;;;;;;;;;15.70;88.70;;;;;;5094153;28;19955;-37
2021/07/10 02:54:23;;;;;;;;;;;15.70;88.60;;;;;;5094079;28;19935;-37
2021/07/10 02:56:49;;;;;;;;;;;15.70;88.50;;;;;;5094317;28;19990;-36
2021/07/10 02:59:14;;;;;;;;;;;15.60;88.50;;;;;;5094288;28;20344;-36
2021/07/10 03:01:40;;;;;;;;;;;15.50;88.80;;;;;;5094006;28;19911;-36
2021/07/10 03:04:06;;;;;;;;;;;15.50;89.00;;;;;;5093919;28;19911;-36
2021/07/10 03:06:31;;;;;;;;;;;15.40;88.70;;;;;;5093975;28;19904;-36
2021/07/10 03:08:57;;;;;;;;;;;15.30;89.00;;;;;;5094462;28;20002;-36
2021/07/10 03:11:22;;;;;;;;;;;15.40;89.20;;;;;;5094136;28;19904;-36
2021/07/10 03:13:48;;;;;;;;;;;15.40;89.10;;;;;;5094138;28;19908;-36
2021/07/10 03:16:13;;;;;;;;;;;15.40;88.80;;;;;;5093912;28;19904;-36
2021/07/10 03:18:39;;;;;;;;;;;15.40;88.80;;;;;;5093797;28;20409;-36
2021/07/10 03:21:04;;;;;;;;;;;15.40;88.90;;;;;;5093875;28;19907;-37
2021/07/10 03:23:30;;;;;;;;;;;15.40;88.70;;;;;;5094076;28;19958;-37
2021/07/10 03:25:55;;;;;;;;;;;15.30;88.70;;;;;;5094011;28;19949;-36
2021/07/10 03:28:21;;;;;;;;;;;15.30;89.00;;;;;;5093936;28;19904;-37
2021/07/10 03:30:51;;;;;;;;;;;15.20;89.20;;;;;;5094003;28;19908;-37
2021/07/10 03:33:16;;;;;;;;;;;15.20;89.20;;;;;;5094006;28;19904;-37
2021/07/10 03:35:42;;;;;;;;;;;15.20;89.20;;;;;;5093587;28;19941;-37
2021/07/10 03:38:08;;;;;;;;;;;15.30;89.10;;;;;;5093601;28;19950;-37
2021/07/10 03:40:33;;;;;;;;;;;15.30;88.90;;;;;;5093660;28;19911;-38
2021/07/10 03:42:59;;;;;;;;;;;15.30;89.10;;;;;;5093678;28;20279;-37
2021/07/10 03:45:24;;;;;;;;;;;15.30;88.90;;;;;;5093912;28;19930;-37
2021/07/10 03:47:51;;;;;;;;;;;15.30;89.10;;;;;;5093902;28;20314;-36
2021/07/10 03:50:17;;;;;;;;;;;15.30;89.10;;;;;;5097038;28;19962;-37
2021/07/10 03:52:43;;;;;;;;;;;15.30;88.90;;;;;;5097526;28;19904;-37
2021/07/10 03:55:11;;;;;;;;;;;15.30;88.70;;;;;;5097484;28;19904;-37
2021/07/10 03:57:36;;;;;;;;;;;15.40;89.00;;;;;;5097439;28;19904;-37
2021/07/10 04:00:04;;;;;;;;;;;15.40;88.80;;;;;;5097371;28;19904;-36
2021/07/10 04:02:30;;;;;;;;;;;15.40;88.80;;;;;;5098554;28;19955;-37
2021/07/10 04:04:55;;;;;;;;;;;15.60;88.80;;;;;;5097604;28;19904;-37
2021/07/10 04:07:21;;;;;;;;;;;15.50;89.00;;;;;;5079162;28;19955;-37
2021/07/10 04:09:46;;;;;;;;;;;15.50;88.60;;;;;;5097468;28;19947;-37
2021/07/10 04:12:12;;;;;;;;;;;15.50;88.30;;;;;;5097231;28;20403;-37
2021/07/10 04:14:37;;;;;;;;;;;15.50;88.50;;;;;;5097307;28;19908;-37
2021/07/10 04:17:03;;;;;;;;;;;15.50;88.40;;;;;;5097400;28;19912;-37
2021/07/10 04:19:29;;;;;;;;;;;15.60;88.40;;;;;;5097309;28;19911;-36
2021/07/10 04:21:54;;;;;;;;;;;15.60;88.30;;;;;;5096952;28;19908;-37
2021/07/10 04:24:20;;;;;;;;;;;15.60;88.30;;;;;;5097228;28;19904;-37
2021/07/10 04:26:46;;;;;;;;;;;15.70;88.20;;;;;;5096868;28;19951;-37
2021/07/10 04:29:11;;;;;;;;;;;15.70;88.20;;;;;;5096696;28;20343;-37
2021/07/10 04:31:37;;;;;;;;;;;15.70;88.20;;;;;;5096833;28;19904;-37
2021/07/10 04:34:02;;;;;;;;;;;15.80;87.30;;;;;;5096531;28;20368;-37
2021/07/10 04:36:28;;;;;;;;;;;15.90;87.30;;;;;;5078596;28;19912;-37
2021/07/10 04:38:54;;;;;;;;;;;15.90;87.30;;;;;;5096635;28;19908;-37
2021/07/10 04:41:19;;;;;;;;;;;15.90;87.10;;;;;;5078447;28;19904;-37
2021/07/10 04:43:45;;;;;;;;;;;16.00;87.20;;;;;;5096881;28;19911;-37
2021/07/10 04:46:11;;;;;;;;;;;15.90;87.30;;;;;;5078239;28;19904;-37
2021/07/10 04:48:37;;;;;;;;;;;16.00;87.30;;;;;;5095933;28;19911;-37
2021/07/10 04:51:02;;;;;;;;;;;16.00;87.30;;;;;;5096820;28;19903;-38
2021/07/10 04:53:28;;;;;;;;;;;16.00;87.20;;;;;;5077917;28;19908;-37
2021/07/10 04:55:53;;;;;;;;;;;16.00;87.30;;;;;;5096013;28;19910;-37
2021/07/10 04:58:19;;;;;;;;;;;16.20;87.00;;;;;;5096242;28;19999;-37
2021/07/10 05:00:44;;;;;;;;;;;16.20;86.60;;;;;;5076418;28;19904;-37
2021/07/10 05:03:11;;;;;;;;;;;16.10;86.90;;;;;;5095837;28;19908;-36
2021/07/10 05:05:37;;;;;;;;;;;16.10;87.20;;;;;;5095686;28;19904;-36
2021/07/10 05:08:02;;;;;;;;;;;16.20;86.80;;;;;;5096000;28;19904;-37
2021/07/10 05:10:28;;;;;;;;;;;16.10;87.10;;;;;;5095806;28;19919;-36
2021/07/10 05:12:54;;;;;;;;;;;16.10;87.00;;;;;;5096488;28;19904;-44
2021/07/10 05:15:20;;;;;;;;;;;16.10;87.10;;;;;;5095680;28;19947;-36
2021/07/10 05:17:45;;;;;;;;;;;16.20;86.60;;;;;;5095686;28;19911;-36
2021/07/10 05:20:11;;;;;;;;;;;16.30;86.70;;;;;;5095503;28;19904;-36
2021/07/10 05:22:37;;;;;;;;;;;16.50;86.20;;;;;;5095351;28;19904;-37
2021/07/10 05:25:04;;;;;;;;;;;16.50;85.60;;;;;;5077266;28;19904;-37
2021/07/10 05:27:29;;;;;;;;;;;16.50;85.60;;;;;;5095387;28;19980;-37
2021/07/10 05:29:55;;;;;;;;;;;16.50;85.70;;;;;;5095196;28;20005;-37
2021/07/10 05:32:20;;;;;;;;;;;16.50;85.90;;;;;;5077500;28;19911;-37
2021/07/10 05:34:46;;;;;;;;;;;16.80;85.20;;;;;;5095189;28;20318;-36
2021/07/10 05:37:12;;;;;;;;;;;16.90;84.50;;;;;;5095328;28;19904;-36
2021/07/10 05:39:38;;;;;;;;;;;17.00;84.20;;;;;;5078931;28;19904;-38
2021/07/10 05:42:05;;;;;;;;;;;17.10;84.10;;;;;;5079577;28;19904;-37
2021/07/10 05:44:30;;;;;;;;;;;17.00;84.10;;;;;;5077964;28;19908;-36
2021/07/10 05:46:56;;;;;;;;;;;17.00;84.20;;;;;;5094973;28;19904;-36
2021/07/10 05:49:21;;;;;;;;;;;17.10;84.30;;;;;;5094882;28;19966;-36
2021/07/10 05:51:48;;;;;;;;;;;17.10;84.20;;;;;;5095143;28;19998;-36
2021/07/10 05:54:14;;;;;;;;;;;17.20;83.90;;;;;;5095420;28;19911;-37
2021/07/10 05:56:40;;;;;;;;;;;17.30;84.00;;;;;;5095234;28;19904;-37
2021/07/10 05:59:06;;;;;;;;;;;17.30;83.70;;;;;;5095853;28;19904;-36
2021/07/10 06:01:31;;;;;;;;;;;17.30;83.40;;;;;;5095320;28;20343;-36
2021/07/10 06:03:57;;;;;;;;;;;17.50;82.60;;;;;;5095150;28;19904;-37
2021/07/10 06:06:22;;;;;;;;;;;17.50;83.40;;;;;;5076920;28;19911;-37
2021/07/10 06:08:48;;;;;;;;;;;17.80;82.50;;;;;;5094966;28;19958;-35
2021/07/10 06:11:14;;;;;;;;;;;18.00;81.30;;;;;;5094683;28;20321;-36
2021/07/10 06:13:39;;;;;;;;;;;18.20;81.20;;;;;;5095570;28;19903;-35
2021/07/10 06:16:05;;;;;;;;;;;18.50;80.40;;;;;;5095103;28;19908;-35
2021/07/10 06:18:30;;;;;;;;;;;18.80;78.80;;;;;;5094540;28;19904;-35
2021/07/10 06:20:56;;;;;;;;;;;19.30;76.50;;;;;;5094728;28;19905;-36
2021/07/10 06:23:21;;;;;;;;;;;19.40;75.70;;;;;;5094726;28;20336;-42
2021/07/10 06:25:47;;;;;;;;;;;19.70;75.20;;;;;;5094476;28;19926;-37
2021/07/10 06:28:13;;;;;;;;;;;19.80;74.50;;;;;;5094449;28;19926;-36
2021/07/10 06:30:38;;;;;;;;;;;20.10;73.10;;;;;;5094312;28;19934;-36
2021/07/10 06:33:04;;;;;;;;;;;19.90;73.80;;;;;;5094680;28;19911;-36
2021/07/10 06:35:30;;;;;;;;;;;20.20;73.10;;;;;;5094102;28;19922;-37
2021/07/10 06:37:55;;;;;;;;;;;20.00;73.60;;;;;;5094885;28;20003;-37
2021/07/10 06:40:21;;;;;;;;;;;19.90;73.90;;;;;;5094436;28;19904;-36
2021/07/10 06:42:46;;;;;;;;;;;20.10;73.20;;;;;;5094275;28;19911;-37
2021/07/10 06:45:14;;;;;;;;;;;20.20;73.00;;;;;;5094904;28;19904;-35
2021/07/10 06:47:40;;;;;;;;;;;20.20;73.20;;;;;;5094749;28;19904;-36
2021/07/10 06:50:07;;;;;;;;;;;19.90;74.10;;;;;;5076111;28;20378;-37
2021/07/10 06:52:33;;;;;;;;;;;19.80;74.80;;;;;;5094188;28;19919;-36
2021/07/10 06:54:59;;;;;;;;;;;19.80;73.90;;;;;;5093817;28;19904;-35
2021/07/10 06:57:24;;;;;;;;;;;20.00;73.80;;;;;;5075496;28;19904;-35
2021/07/10 06:59:50;;;;;;;;;;;20.40;71.90;;;;;;5094112;28;19911;-37
2021/07/10 07:02:15;;;;;;;;;;;20.40;72.40;;;;;;5093621;28;19953;-36
2021/07/10 07:04:41;;;;;;;;;;;20.40;71.80;;;;;;5094666;28;19904;-43
2021/07/10 07:07:07;;;;;;;;;;;19.90;73.70;;;;;;5075814;28;19911;-38
2021/07/10 07:09:32;;;;;;;;;;;20.30;71.20;;;;;;5093758;28;19915;-37
2021/07/10 07:11:58;;;;;;;;;;;20.20;72.80;;;;;;5093729;28;20310;-36
2021/07/10 07:14:23;;;;;;;;;;;20.30;71.90;;;;;;5093808;28;20287;-36
2021/07/10 07:16:49;;;;;;;;;;;20.40;71.20;;;;;;5075596;28;19911;-36
2021/07/10 07:19:14;;;;;;;;;;;20.60;71.10;;;;;;5093684;28;20356;-36
2021/07/10 07:21:40;;;;;;;;;;;20.10;72.20;;;;;;5093688;28;19904;-40
2021/07/10 07:24:06;;;;;;;;;;;20.20;72.30;;;;;;5095451;28;20316;-36
2021/07/10 07:26:32;;;;;;;;;;;20.80;70.10;;;;;;5097767;28;19904;-37
2021/07/10 07:28:58;;;;;;;;;;;21.10;68.90;;;;;;5097829;28;19938;-37
2021/07/10 07:31:23;;;;;;;;;;;20.60;69.20;;;;;;5097866;28;19927;-36
2021/07/10 07:33:49;;;;;;;;;;;20.80;67.40;;;;;;5097771;28;20356;-37
2021/07/10 07:36:14;;;;;;;;;;;21.10;66.10;;;;;;5098185;28;19908;-37
2021/07/10 07:38:40;;;;;;;;;;;21.40;64.10;;;;;;5097866;28;19937;-36
2021/07/10 07:41:06;;;;;;;;;;;21.30;64.20;;;;;;5079525;28;19952;-36
2021/07/10 07:43:50;;;;;;;;;;;21.30;64.00;;;;;;5107304;28;19910;-47
2021/07/10 07:46:15;;;;;;;;;;;20.90;65.70;;;;;;5063422;28;19908;-48
2021/07/10 07:48:45;;;;;;;;;;;21.40;63.10;;;;;;5097716;28;20270;-48
2021/07/10 07:51:15;;;;;;;;;;;21.60;62.90;;;;;;5079889;28;19914;-48
2021/07/10 07:53:42;;;;;;;;;;;21.90;61.90;;;;;;5079788;28;19912;-49
2021/07/10 07:56:09;;;;;;;;;;;22.10;61.30;;;;;;5097677;28;19994;-52
2021/07/10 07:58:34;;;;;;;;;;;22.90;59.10;;;;;;5097639;28;19911;-36
2021/07/10 08:01:00;;;;;;;;;;;23.00;58.60;;;;;;5097938;28;20002;-37
2021/07/10 08:03:25;;;;;;;;;;;22.80;58.40;;;;;;5097359;28;19904;-37
2021/07/10 08:05:51;;;;;;;;;;;22.30;59.80;;;;;;5097507;28;19904;-40
2021/07/10 08:08:16;;;;;;;;;;;22.30;59.10;;;;;;5097555;28;20003;-36
2021/07/10 08:10:42;;;;;;;;;;;22.10;60.50;;;;;;5097519;28;19908;-37
2021/07/10 08:13:07;;;;;;;;;;;22.30;60.10;;;;;;5097251;28;20367;-37
2021/07/10 08:15:33;;;;;;;;;;;22.30;59.80;;;;;;5079164;28;19934;-37
2021/07/10 08:17:58;;;;;;;;;;;22.80;58.40;;;;;;5096605;28;19911;-37
2021/07/10 08:20:24;;;;;;;;;;;22.80;58.50;;;;;;5096458;28;20010;-35
2021/07/10 08:22:50;;;;;;;;;;;22.80;58.50;;;;;;5095235;28;19908;-36
2021/07/10 08:25:16;;;;;;;;;;;23.20;57.70;;;;;;5096654;28;19911;-35
2021/07/10 08:27:42;;;;;;;;;;;22.80;58.60;;;;;;5078525;28;19962;-37
2021/07/10 08:30:08;;;;;;;;;;;22.70;58.90;;;;;;5097171;28;19947;-38
2021/07/10 08:32:34;;;;;;;;;;;23.10;58.20;;;;;;5096428;28;19983;-37
2021/07/10 08:34:59;;;;;;;;;;;23.20;57.70;;;;;;5096498;28;19947;-36
2021/07/10 08:37:25;;;;;;;;;;;23.30;57.00;;;;;;5096417;28;19930;-36
2021/07/10 08:39:51;;;;;;;;;;;23.70;56.20;;;;;;5096720;28;19957;-38
2021/07/10 08:42:17;;;;;;;;;;;23.90;55.30;;;;;;5096241;28;19911;-35
2021/07/10 08:44:45;;;;;;;;;;;23.80;55.10;;;;;;5095954;28;19904;-38
2021/07/10 08:47:14;;;;;;;;;;;23.60;56.10;;;;;;5095942;28;19904;-37
2021/07/10 08:49:40;;;;;;;;;;;23.80;55.00;;;;;;5096208;28;19912;-36
2021/07/10 08:52:06;;;;;;;;;;;24.40;53.60;;;;;;5095819;28;19911;-37
2021/07/10 08:54:32;;;;;;;;;;;24.50;52.70;;;;;;5078592;28;19903;-38
2021/07/10 08:56:57;;;;;;;;;;;24.40;52.40;;;;;;5095924;28;19904;-37
2021/07/10 08:59:23;;;;;;;;;;;23.70;55.10;;;;;;5096180;28;19904;-36
2021/07/10 09:01:53;;;;;;;;;;;23.30;53.70;;;;;;5095900;28;19995;-36
2021/07/10 09:04:22;;;;;;;;;;;24.00;51.50;;;;;;5095958;28;19943;-37
2021/07/10 09:06:48;;;;;;;;;;;24.20;50.50;;;;;;5078048;28;19930;-42
2021/07/10 09:09:14;;;;;;;;;;;23.10;54.30;;;;;;5096916;28;20006;-48
2021/07/10 09:11:39;;;;;;;;;;;23.10;55.00;;;;;;5096188;28;19910;-37
2021/07/10 09:14:05;;;;;;;;;;;23.20;55.60;;;;;;5078381;28;19904;-36
2021/07/10 09:16:31;;;;;;;;;;;22.30;58.20;;;;;;5095418;28;19910;-36
2021/07/10 09:18:58;;;;;;;;;;;23.30;55.00;;;;;;5095299;28;19904;-36
2021/07/10 09:21:33;;;;;;;;;;;23.50;54.60;;;;;;5095292;28;20323;-36
2021/07/10 09:23:59;;;;;;;;;;;23.40;53.60;;;;;;5096522;28;19908;-37
2021/07/10 09:26:26;;;;;;;;;;;23.80;52.40;;;;;;5096848;28;20310;-37
2021/07/10 09:29:00;;;;;;;;;;;24.10;51.90;;;;;;5097118;28;19915;-38
2021/07/10 09:31:30;;;;;;;;;;;24.30;51.20;;;;;;5096382;28;19939;-38
2021/07/10 09:34:01;;;;;;;;;;;24.40;50.30;;;;;;5095009;28;19904;-42
2021/07/10 09:36:26;;;;;;;;;;;24.60;49.30;;;;;;5095941;28;19907;-38
2021/07/10 09:38:53;;;;;;;;;;;23.40;52.80;;;;;;5094910;28;20232;-37
2021/07/10 09:41:31;;;;;;;;;;;22.70;55.50;;;;;;5094587;28;20060;-37
2021/07/10 09:44:05;;;;;;;;;;;23.30;54.50;;;;;;5094640;28;20274;-36
2021/07/10 09:46:30;;;;;;;;;;;24.50;51.20;;;;;;5093803;28;19990;-37
2021/07/10 09:48:56;;;;;;;;;;;24.70;50.20;;;;;;5094436;28;20367;-37
2021/07/10 09:51:26;;;;;;;;;;;24.50;50.20;;;;;;5094485;28;19903;-36
2021/07/10 09:54:01;;;;;;;;;;;24.50;50.40;;;;;;5094114;28;19904;-37
2021/07/10 09:56:27;;;;;;;;;;;23.80;52.40;;;;;;5094899;28;19911;-37
2021/07/10 09:58:52;;;;;;;;;;;23.70;53.20;;;;;;5094851;28;20420;-36
2021/07/10 10:01:31;;;;;;;;;;;24.90;50.40;;;;;;5094709;28;19908;-38
2021/07/10 10:03:57;;;;;;;;;;;25.20;49.20;;;;;;5094304;28;19904;-36
2021/07/10 10:06:32;;;;;;;;;;;24.50;51.10;;;;;;5094370;28;20344;-38
2021/07/10 10:08:59;;;;;;;;;;;23.60;53.80;;;;;;5094329;28;19907;-37
2021/07/10 10:11:25;;;;;;;;;;;23.40;54.30;;;;;;5059563;28;19931;-37
2021/07/10 10:13:53;;;;;;;;;;;23.60;54.50;;;;;;5059526;28;19904;-38
2021/07/10 10:16:19;;;;;;;;;;;24.30;52.10;;;;;;5094459;28;19908;-37
2021/07/10 10:18:45;;;;;;;;;;;23.80;52.70;;;;;;5094692;28;20306;-37
2021/07/10 10:21:11;;;;;;;;;;;23.70;53.60;;;;;;5093915;28;19904;-37
2021/07/10 10:23:36;;;;;;;;;;;23.60;53.60;;;;;;5094784;28;19904;-36
2021/07/10 10:26:03;;;;;;;;;;;23.80;54.20;;;;;;5093917;28;19904;-37
2021/07/10 10:28:31;;;;;;;;;;;23.70;53.50;;;;;;5094814;28;19912;-38
2021/07/10 10:30:57;;;;;;;;;;;24.00;53.60;;;;;;5075972;28;19915;-37
2021/07/10 10:33:24;;;;;;;;;;;23.90;53.20;;;;;;5093476;28;19904;-37
2021/07/10 10:35:50;;;;;;;;;;;24.00;53.10;;;;;;5054893;28;20376;-37
2021/07/10 10:38:17;;;;;;;;;;;23.40;54.30;;;;;;5054110;28;20375;-39
2021/07/10 10:40:43;;;;;;;;;;;24.00;52.60;;;;;;5053880;28;19951;-36
2021/07/10 10:43:13;;;;;;;;;;;23.90;53.60;;;;;;5053787;28;19909;-38
2021/07/10 10:45:40;;;;;;;;;;;24.00;54.10;;;;;;5053661;28;19912;-36
2021/07/10 10:48:06;;;;;;;;;;;23.80;52.80;;;;;;5053489;28;19904;-36
2021/07/10 10:50:36;;;;;;;;;;;23.60;54.30;;;;;;5053344;28;19962;-37
2021/07/10 10:53:02;;;;;;;;;;;24.00;52.00;;;;;;5053398;28;19947;-38
2021/07/10 10:55:31;;;;;;;;;;;24.00;52.90;;;;;;5035282;28;19904;-37
2021/07/10 10:58:17;;;;;;;;;;;24.20;52.40;;;;;;5053931;28;19939;-37
2021/07/10 11:00:43;;;;;;;;;;;24.50;51.00;;;;;;5052851;28;19911;-37
2021/07/10 11:03:15;;;;;;;;;;;23.80;53.00;;;;;;5053224;28;20003;-37
2021/07/10 11:05:47;;;;;;;;;;;23.20;55.70;;;;;;5053273;28;20387;-37
2021/07/10 11:08:21;;;;;;;;;;;23.50;54.40;;;;;;5054102;28;19905;-37
2021/07/10 11:10:52;;;;;;;;;;;24.00;53.60;;;;;;5053674;28;20414;-38
2021/07/10 11:13:47;;;;;;;;;;;24.30;51.30;;;;;;5053587;28;19944;-37
2021/07/10 11:16:20;;;;;;;;;;;23.80;52.70;;;;;;5030679;28;19911;-35
2021/07/10 11:18:56;;;;;;;;;;;23.90;52.60;;;;;;5053755;28;19905;-37
2021/07/10 11:24:17;;;;;;;;;;;24.30;52.10;;;;;;5053576;28;19911;-36
2021/07/10 11:26:57;;;;;;;;;;;24.30;52.40;;;;;;5053300;28;19966;-37
2021/07/10 11:29:24;;;;;;;;;;;24.50;52.10;;;;;;5053143;28;19997;-37
2021/07/10 11:31:51;;;;;;;;;;;24.80;50.60;;;;;;5052995;28;19954;-36
2021/07/10 11:34:17;;;;;;;;;;;24.30;52.60;;;;;;5063135;28;19916;-36
2021/07/10 11:36:44;;;;;;;;;;;24.10;52.60;;;;;;5093372;28;19908;-37
2021/07/10 11:39:36;;;;;;;;;;;24.30;51.80;;;;;;5075236;28;19904;-36
2021/07/10 11:42:17;;;;;;;;;;;24.50;50.60;;;;;;5088522;28;19905;-36
2021/07/10 11:44:43;;;;;;;;;;;24.90;48.80;;;;;;5093694;28;19958;-37
2021/07/10 11:47:08;;;;;;;;;;;25.40;47.90;;;;;;5093872;28;19988;-36
2021/07/10 11:49:41;;;;;;;;;;;25.40;47.60;;;;;;5093490;28;19914;-36
2021/07/10 11:52:17;;;;;;;;;;;25.20;48.90;;;;;;5093326;28;19904;-36
2021/07/10 11:54:46;;;;;;;;;;;25.00;49.00;;;;;;5093760;28;19908;-36
2021/07/10 11:57:13;;;;;;;;;;;24.80;49.00;;;;;;5075247;28;20267;-37
2021/07/10 11:59:40;;;;;;;;;;;25.00;48.70;;;;;;5075532;28;20378;-36
2021/07/10 12:02:18;;;;;;;;;;;26.10;45.70;;;;;;5093783;28;19927;-37
2021/07/10 12:05:01;;;;;;;;;;;26.00;46.50;;;;;;5093907;28;20011;-39
2021/07/10 12:07:27;;;;;;;;;;;25.10;47.90;;;;;;5093303;28;19904;-38
2021/07/10 12:09:54;;;;;;;;;;;25.30;47.40;;;;;;5094852;28;19908;-37
2021/07/10 12:12:20;;;;;;;;;;;25.70;47.80;;;;;;5078756;28;19903;-36
2021/07/10 12:14:55;;;;;;;;;;;26.30;45.90;;;;;;5097009;28;20007;-37
2021/07/10 12:17:21;;;;;;;;;;;26.20;46.30;;;;;;5078659;28;19990;-36
2021/07/10 12:19:48;;;;;;;;;;;27.40;42.30;;;;;;5096840;28;19994;-37
2021/07/10 12:22:13;;;;;;;;;;;27.60;40.70;;;;;;5097031;28;19904;-37
2021/07/10 12:24:39;;;;;;;;;;;27.70;41.10;;;;;;5096908;28;19949;-37
2021/07/10 12:27:08;;;;;;;;;;;27.90;40.10;;;;;;5096861;28;20279;-37
2021/07/10 12:29:34;;;;;;;;;;;27.00;42.20;;;;;;5096755;28;19908;-37
2021/07/10 12:31:59;;;;;;;;;;;26.80;41.90;;;;;;5096666;28;19904;-36
2021/07/10 12:34:25;;;;;;;;;;;26.80;41.40;;;;;;5096366;28;19962;-36
2021/07/10 12:36:50;;;;;;;;;;;27.40;40.80;;;;;;5096750;28;19998;-36
2021/07/10 12:39:23;;;;;;;;;;;28.30;38.80;;;;;;5098715;28;19904;-37
2021/07/10 12:41:56;;;;;;;;;;;28.90;38.70;;;;;;5098617;28;19931;-37
2021/07/10 12:44:23;;;;;;;;;;;28.70;39.70;;;;;;5096498;28;19904;-37
2021/07/10 12:46:55;;;;;;;;;;;28.30;40.40;;;;;;5097442;28;19966;-37
2021/07/10 12:49:22;;;;;;;;;;;29.10;38.80;;;;;;5097188;28;20366;-37
2021/07/10 12:51:48;;;;;;;;;;;30.40;35.60;;;;;;5096421;28;20334;-37
2021/07/10 12:54:32;;;;;;;;;;;30.80;34.50;;;;;;5096187;28;19904;-37
2021/07/10 12:56:59;;;;;;;;;;;30.30;34.40;;;;;;5077985;28;19904;-37
2021/07/10 12:59:26;;;;;;;;;;;30.40;35.30;;;;;;5096242;28;20255;-38
2021/07/10 13:01:51;;;;;;;;;;;29.70;35.40;;;;;;5077813;28;19903;-37
2021/07/10 13:04:17;;;;;;;;;;;28.50;37.50;;;;;;5078283;28;20351;-40
2021/07/10 13:06:43;;;;;;;;;;;29.00;37.40;;;;;;5096144;28;19904;-37
2021/07/10 13:09:09;;;;;;;;;;;28.80;37.50;;;;;;5095974;28;19941;-37
2021/07/10 13:11:47;;;;;;;;;;;26.90;41.20;;;;;;5095985;28;19980;-37
2021/07/10 13:14:19;;;;;;;;;;;26.30;42.60;;;;;;5095703;28;19991;-37
2021/07/10 13:16:45;;;;;;;;;;;25.40;45.20;;;;;;5095844;28;19952;-37
2021/07/10 13:19:10;;;;;;;;;;;25.70;44.90;;;;;;5095540;28;19908;-37
2021/07/10 13:21:36;;;;;;;;;;;25.20;45.50;;;;;;5095032;28;19995;-37
2021/07/10 13:24:03;;;;;;;;;;;25.20;45.40;;;;;;5095527;28;19910;-37
2021/07/10 13:26:28;;;;;;;;;;;25.60;44.10;;;;;;5096506;28;20327;-36
2021/07/10 13:29:02;;;;;;;;;;;25.80;43.60;;;;;;5095312;28;19911;-36
2021/07/10 13:31:30;;;;;;;;;;;26.20;42.60;;;;;;5095915;28;20351;-36
2021/07/10 13:34:02;;;;;;;;;;;26.50;41.70;;;;;;5095451;28;19904;-38
2021/07/10 13:36:38;;;;;;;;;;;26.00;42.80;;;;;;5096268;28;19904;-36
2021/07/10 13:39:11;;;;;;;;;;;25.90;43.60;;;;;;5095835;28;19904;-37
2021/07/10 13:41:38;;;;;;;;;;;26.20;43.30;;;;;;5095024;28;19904;-37
2021/07/10 13:44:08;;;;;;;;;;;25.80;43.90;;;;;;5095838;28;19904;-37
2021/07/10 13:46:41;;;;;;;;;;;25.40;45.50;;;;;;5095817;28;20366;-37
2021/07/10 13:49:20;;;;;;;;;;;25.00;46.50;;;;;;5094945;28;19994;-38
2021/07/10 13:51:50;;;;;;;;;;;25.20;45.80;;;;;;5095301;28;19927;-37
2021/07/10 13:54:23;;;;;;;;;;;24.90;47.00;;;;;;5077293;28;19953;-38
2021/07/10 13:57:07;;;;;;;;;;;24.90;46.40;;;;;;5094886;28;19908;-38
2021/07/10 13:59:33;;;;;;;;;;;25.10;46.20;;;;;;5095673;28;19912;-37
2021/07/10 14:01:58;;;;;;;;;;;25.00;46.50;;;;;;5076584;28;20011;-36
2021/07/10 14:04:24;;;;;;;;;;;24.50;48.20;;;;;;5095460;28;19904;-37
2021/07/10 14:06:49;;;;;;;;;;;24.60;48.10;;;;;;5076658;28;20252;-37
2021/07/10 14:09:16;;;;;;;;;;;24.10;49.70;;;;;;5076430;28;20015;-37
2021/07/10 14:11:42;;;;;;;;;;;24.60;48.50;;;;;;5094610;28;19927;-37
2021/07/10 14:14:07;;;;;;;;;;;24.90;48.30;;;;;;5095070;28;19904;-39
2021/07/10 14:16:33;;;;;;;;;;;24.40;48.40;;;;;;5094719;28;19943;-37
2021/07/10 14:18:59;;;;;;;;;;;24.30;49.50;;;;;;5094836;28;20310;-36